East Jordan, Michigan
Current Conditions -  °F | °C
As of 11:15 PM on Thursday 27 Nov 2014 (Local Time) from KCVX Reporting Station
Light Snow Light Snow  
Wind Chill:   Ceiling: 3200
Heat Index: 19°   Visibility: 7mi
Dew Point: 10°   Wind: 8mph
Humidity: 69%   Direction: 340°NNW
Pressure: 30.31"   Gusts: 18mph
Location:  45.16°N, 85.12°W
Report Text: KCVX 280415Z AUTO 34007G16KT 7SM -SN OVC032 M07/M12 A3031 RMK AO2 T10721121
Loading
Personal Weather Stations






























Interactive Weather Map New forecast layout! Learn more

10-Day Weather Forecast

Advertisements
Track Severe Weather on mobile